Airfield :
LOGIN :

Register | Disclaimer

   EN    FR    IT 

 










Legend :    VFR   Marginal VFR   IFR   Intensive IFR   Very Intensive IFR
Visi :
Ceiling :
>= 8 km
>= 3000ft
5 to 8 km
1000 to 3000 ft
1500m to 5 km
500 to 1000 ft
800 to 1500m
200 to 500 ft
< 800m
< 200 ft
Symbols :   Thunderstorms  Fog  Heavy snow  Heavy precipitations  Wind > 20 kt
SIGMETs :     Misc.  Thunderstorms  Icing  Turbulence  Mountain Waves  Volcanic Ashes






- Airport Elevation : 794 ft


LKCV - Čáslav Air Base

CURRENT METAR :
  • 180600Z 12013KT 9999 OVC020 12/08 Q1006 NOSIG RMK WHT WHT

EXPIRED METARs :
  • 180500Z 13013KT 9999 OVC021 12/08 Q1005 NOSIG RMK WHT WHT
  • 180424Z 13016KT 9999 BKN020 12/08 Q1005 RMK WHT
  • 180400Z 13020KT 9999 SCT022 BKN130 12/08 Q1005 NOSIG RMK BLU BLU
  • 180327Z 13017G27KT 9999 SCT022 BKN150 12/08 Q1004 RMK BLU

TAF TAF LKCV
Valid from the 18 at 06:00 until the 19 at 06:00 UTC


180500Z 1806/1906 13015KT 9999 BKN022
TEMPO 1806/1812 13020G30KT
BECMG 1808/1811 BKN013
TEMPO 1807/1815 5000 RA BKN006 OVC020
BECMG 1811/1814 26010KT 9999 BKN026
BECMG 1817/1820 12004KT CAVOK
TEMPO 1902/1906 VRB02KT 3000 BR OVC005



MET'MAP, your aeronautical weather chart ! - Copyright ORBIFLY December 2007 - Disclaimer

ORBIFLY MET'MAP TEAM :

Programming & Development : Alexandra Zaïnal
Concept & Development : Baudouin d'Aumeries
Co-Development & Prog : Marc-Olivier Méhu
Technical & hardware support : Manuel Goepfert

Contact : metmap@orbifly.com




SOURCES & CREDITS :

   NOAA